1873 Hurricane NOT_NAMED (1873223N11332)


IBTrACS version v04r00. Visit IBTrACS website for data access.
Please direct all questions to the IBTrACS Q and A forum

Storm track - Intensity - Wind Radii - Intensity Data - Source Data - All data

Summary Information

Storm ID 1873223N11332
Start Aug 10 18Z
Max Intensity 80 kt (Aug 18 18Z)
End Aug 19 00Z
ATCF IDs
Track status Best track data.
Spur track This storm is a spur track associated with the main storm: 1873225N14335

Storm track plot

Map of storm track

Intensity plots

Map of storm track

Radial wind information

No radial wind information for this storm


Position and Intensity Table

BASIN ISO_TIME_________ NATURE LAT LON MLC WIND
degrees north degrees east kts
NA 1873-08-10 18:00:00 TS 11.00 -28.00 35
NA 21:00:00 TS 11.15 -28.45 35
NA 1873-08-11 00:00:00 TS 11.30 -28.90 35
NA 03:00:00 TS 11.45 -29.35 35
NA 06:00:00 TS 11.60 -29.80 35
NA 09:00:00 TS 11.74 -30.25 37
NA 12:00:00 TS 11.90 -30.70 40
NA 15:00:00 TS 12.10 -31.15 42
NA 18:00:00 TS 12.30 -31.60 45
NA 21:00:00 TS 12.46 -32.05 47
NA 1873-08-12 00:00:00 TS 12.60 -32.50 50
NA 03:00:00 TS 12.75 -32.95 52
NA 06:00:00 TS 12.90 -33.40 55
NA 09:00:00 TS 13.05 -33.85 57
NA 12:00:00 TS 13.20 -34.30 60
NA 15:00:00 TS 13.35 -34.74 60
NA 18:00:00 TS 13.50 -35.20 60
NA 21:00:00 TS 13.64 -35.71 62
NA 1873-08-13 00:00:00 TS 13.80 -36.20 65
NA 03:00:00 TS 14.00 -36.61 65
NA 06:00:00 TS 14.20 -37.00 65
NA 09:00:00 TS 14.35 -37.44 65
NA 12:00:00 TS 14.50 -37.90 65
NA 15:00:00 TS 14.70 -38.36 67
NA 18:00:00 TS 14.90 -38.80 70
NA 21:00:00 TS 15.05 -39.18 70
NA 1873-08-14 00:00:00 TS 15.20 -39.60 70
NA 03:00:00 TS 15.40 -40.18 70
NA 06:00:00 TS 15.60 -40.80 70
NA 09:00:00 TS 15.76 -41.37 70
NA 12:00:00 TS 15.90 -41.90 70
NA 15:00:00 TS 16.04 -42.37 72
NA 18:00:00 TS 16.20 -42.80 75
NA 21:00:00 TS 16.40 -43.26 75
NA 1873-08-15 00:00:00 TS 16.60 -43.70 75
NA 03:00:00 TS 16.76 -44.08 75
NA 06:00:00 TS 16.90 -44.50 75
NA 09:00:00 TS 17.04 -45.08 75
NA 12:00:00 TS 17.20 -45.70 75
NA 15:00:00 TS 17.40 -46.27 75
NA 18:00:00 TS 17.60 -46.80 75
NA 21:00:00 TS 17.76 -47.27 75
NA 1873-08-16 00:00:00 TS 17.90 -47.70 75
NA 03:00:00 TS 18.04 -48.16 75
NA 06:00:00 TS 18.20 -48.60 75
NA 09:00:00 TS 18.39 -48.99 75
NA 12:00:00 TS 18.60 -49.40 75
NA 15:00:00 TS 18.81 -49.93 75
NA 18:00:00 TS 19.00 -50.50 75
NA 21:00:00 TS 19.16 -51.07 75
NA 1873-08-17 00:00:00 TS 19.30 -51.60 75
NA 03:00:00 TS 19.44 -52.07 75
NA 06:00:00 TS 19.60 -52.50 75
NA 09:00:00 TS 19.80 -52.96 75
NA 12:00:00 TS 20.00 -53.40 75
NA 15:00:00 TS 20.15 -53.79 75
NA 18:00:00 TS 20.30 -54.20 75
NA 21:00:00 TS 20.50 -54.73 75
NA 1873-08-18 00:00:00 TS 20.70 -55.30 75
NA 03:00:00 TS 20.86 -55.86 75
NA 06:00:00 TS 21.00 -56.40 75
NA 09:00:00 TS 21.14 -56.90 75
NA 12:00:00 TS 21.30 -57.40 75
NA 15:00:00 TS 21.50 -57.94 77
NA 18:00:00 TS 21.70 -58.50 80
NA 21:00:00 TS 21.86 -59.07 80
NA 1873-08-19 00:00:00 TS 22.00 -59.60 80

Source Information

Agency Information
USA
TOKYO
CMA
HKO
NEWDELHI
REUNION
BOM
NADI
WELLINGTON
DS824
TD9636
TD9635
NEUMANN
MLC

All available IBTrACS Data

SEASON BASIN SUBBASIN ISO_TIME_________ NATURE LAT LON DIST2LAND LANDFALL IFLAG USA SSHS MLC LAT MLC LON MLC CLASS MLC WIND STORM SPEED STORM DIR
Year degrees north degrees east km km 1 degrees north degrees east kts kts degrees
1873 NA NA 1873-08-10 18:00:00 TS 11.00 -28.00 1211 1211 _____________O -1 11.00 -28.00 TS 35 9 289
1873 NA NA 21:00:00 TS 11.15 -28.45 1244 1244 _____________P -1 11.15 -28.45 TS 35 9 289
1873 NA NA 1873-08-11 00:00:00 TS 11.30 -28.90 1292 1292 _____________O -1 11.30 -28.90 TS 35 9 289
1873 NA NA 03:00:00 TS 11.45 -29.35 1341 1338 _____________P -1 11.45 -29.35 TS 35 9 289
1873 NA NA 06:00:00 TS 11.60 -29.80 1376 1376 _____________O -1 11.60 -29.80 TS 35 9 288
1873 NA NA 09:00:00 TS 11.74 -30.25 1426 1423 _____________P -1 11.74 -30.25 TS 37 9 289
1873 NA NA 12:00:00 TS 11.90 -30.70 1462 1462 _____________O -1 11.90 -30.70 TS 40 10 292
1873 NA NA 15:00:00 TS 12.10 -31.15 1500 1500 _____________P -1 12.10 -31.15 TS 42 10 294
1873 NA NA 18:00:00 TS 12.30 -31.60 1548 1548 _____________O -1 12.30 -31.60 TS 45 10 292
1873 NA NA 21:00:00 TS 12.46 -32.05 1597 1597 _____________P -1 12.46 -32.05 TS 47 9 289
1873 NA NA 1873-08-12 00:00:00 TS 12.60 -32.50 1638 1638 _____________O -1 12.60 -32.50 TS 50 9 288
1873 NA NA 03:00:00 TS 12.75 -32.95 1689 1688 _____________P -1 12.75 -32.95 TS 52 9 289
1873 NA NA 06:00:00 TS 12.90 -33.40 1729 1729 _____________O -1 12.90 -33.40 TS 55 9 289
1873 NA NA 09:00:00 TS 13.05 -33.85 1781 1779 _____________P -1 13.05 -33.85 TS 57 9 289
1873 NA NA 12:00:00 TS 13.20 -34.30 1821 1821 _____________O -1 13.20 -34.30 TS 60 9 289
1873 NA NA 15:00:00 TS 13.35 -34.74 1862 1862 _____________P -1 13.35 -34.74 TS 60 9 289
1873 NA NA 18:00:00 TS 13.50 -35.20 1906 1900 _____________O -1 13.50 -35.20 TS 60 10 287
1873 NA NA 21:00:00 TS 13.64 -35.71 1903 1903 _____________P -1 13.64 -35.71 TS 62 10 287
1873 NA NA 1873-08-13 00:00:00 TS 13.80 -36.20 1912 1910 _____________O -1 13.80 -36.20 HU 65 9 292
1873 NA NA 03:00:00 TS 14.00 -36.61 1926 1920 _____________P -1 14.00 -36.61 HU 65 9 297
1873 NA NA 06:00:00 TS 14.20 -37.00 1920 1891 _____________O -1 14.20 -37.00 HU 65 9 293
1873 NA NA 09:00:00 TS 14.35 -37.44 1891 1861 _____________P -1 14.35 -37.44 HU 65 9 289
1873 NA NA 12:00:00 TS 14.50 -37.90 1861 1840 _____________O -1 14.50 -37.90 HU 65 10 292
1873 NA NA 15:00:00 TS 14.70 -38.36 1831 1812 _____________P -1 14.70 -38.36 HU 67 10 295
1873 NA NA 18:00:00 TS 14.90 -38.80 1812 1786 _____________O -1 14.90 -38.80 HU 70 9 294
1873 NA NA 21:00:00 TS 15.05 -39.18 1786 1769 _____________P -1 15.05 -39.18 HU 70 8 291
1873 NA NA 1873-08-14 00:00:00 TS 15.20 -39.60 1769 1745 _____________O -1 15.20 -39.60 HU 70 10 290
1873 NA NA 03:00:00 TS 15.40 -40.18 1738 1709 _____________P -1 15.40 -40.18 HU 70 12 289
1873 NA NA 06:00:00 TS 15.60 -40.80 1709 1681 _____________O -1 15.60 -40.80 HU 70 12 287
1873 NA NA 09:00:00 TS 15.76 -41.37 1682 1656 _____________P -1 15.76 -41.37 HU 70 11 286
1873 NA NA 12:00:00 TS 15.90 -41.90 1656 1638 _____________O -1 15.90 -41.90 HU 70 10 287
1873 NA NA 15:00:00 TS 16.04 -42.37 1632 1621 _____________P -1 16.04 -42.37 HU 72 9 289
1873 NA NA 18:00:00 TS 16.20 -42.80 1624 1615 _____________O -1 16.20 -42.80 HU 75 9 293
1873 NA NA 21:00:00 TS 16.40 -43.26 1612 1601 _____________P -1 16.40 -43.26 HU 75 10 295
1873 NA NA 1873-08-15 00:00:00 TS 16.60 -43.70 1603 1586 _____________O -1 16.60 -43.70 HU 75 9 294
1873 NA NA 03:00:00 TS 16.76 -44.08 1595 1579 _____________P -1 16.76 -44.08 HU 75 8 291
1873 NA NA 06:00:00 TS 16.90 -44.50 1579 1559 _____________O -1 16.90 -44.50 HU 75 10 287
1873 NA NA 09:00:00 TS 17.04 -45.08 1553 1539 _____________P -1 17.04 -45.08 HU 75 12 285
1873 NA NA 12:00:00 TS 17.20 -45.70 1539 1528 _____________O -1 17.20 -45.70 HU 75 12 287
1873 NA NA 15:00:00 TS 17.40 -46.27 1528 1519 _____________P -1 17.40 -46.27 HU 75 11 291
1873 NA NA 18:00:00 TS 17.60 -46.80 1524 1516 _____________O -1 17.60 -46.80 HU 75 10 291
1873 NA NA 21:00:00 TS 17.76 -47.27 1522 1513 _____________P -1 17.76 -47.27 HU 75 9 289
1873 NA NA 1873-08-16 00:00:00 TS 17.90 -47.70 1516 1508 _____________O -1 17.90 -47.70 HU 75 9 289
1873 NA NA 03:00:00 TS 18.04 -48.16 1503 1499 _____________P -1 18.04 -48.16 HU 75 9 289
1873 NA NA 06:00:00 TS 18.20 -48.60 1505 1501 _____________O -1 18.20 -48.60 HU 75 9 294
1873 NA NA 09:00:00 TS 18.39 -48.99 1509 1505 _____________P -1 18.39 -48.99 HU 75 9 298
1873 NA NA 12:00:00 TS 18.60 -49.40 1514 1498 _____________O -1 18.60 -49.40 HU 75 10 295
1873 NA NA 15:00:00 TS 18.81 -49.93 1498 1461 _____________P -1 18.81 -49.93 HU 75 11 291
1873 NA NA 18:00:00 TS 19.00 -50.50 1461 1427 _____________O -1 19.00 -50.50 HU 75 11 288
1873 NA NA 21:00:00 TS 19.16 -51.07 1426 1394 _____________P -1 19.16 -51.07 HU 75 11 286
1873 NA NA 1873-08-17 00:00:00 TS 19.30 -51.60 1394 1371 _____________O -1 19.30 -51.60 HU 75 10 287
1873 NA NA 03:00:00 TS 19.44 -52.07 1363 1349 _____________P -1 19.44 -52.07 HU 75 9 289
1873 NA NA 06:00:00 TS 19.60 -52.50 1350 1337 _____________O -1 19.60 -52.50 HU 75 9 293
1873 NA NA 09:00:00 TS 19.80 -52.96 1331 1293 _____________P -1 19.80 -52.96 HU 75 9 295
1873 NA NA 12:00:00 TS 20.00 -53.40 1293 1252 _____________O -1 20.00 -53.40 HU 75 9 294
1873 NA NA 15:00:00 TS 20.15 -53.79 1252 1214 _____________P -1 20.15 -53.79 HU 75 8 292
1873 NA NA 18:00:00 TS 20.30 -54.20 1214 1166 _____________O -1 20.30 -54.20 HU 75 10 292
1873 NA NA 21:00:00 TS 20.50 -54.73 1166 1109 _____________P -1 20.50 -54.73 HU 75 11 291
1873 NA NA 1873-08-18 00:00:00 TS 20.70 -55.30 1109 1060 _____________O -1 20.70 -55.30 HU 75 11 289
1873 NA NA 03:00:00 TS 20.86 -55.86 1053 1005 _____________P -1 20.86 -55.86 HU 75 11 286
1873 NA NA 06:00:00 TS 21.00 -56.40 1005 959 _____________O -1 21.00 -56.40 HU 75 10 286
1873 NA NA 09:00:00 TS 21.14 -56.90 959 916 _____________P -1 21.14 -56.90 HU 75 10 288
1873 NA NA 12:00:00 TS 21.30 -57.40 916 876 _____________O -1 21.30 -57.40 HU 75 10 290
1873 NA NA 15:00:00 TS 21.50 -57.94 876 828 _____________P -1 21.50 -57.94 HU 77 11 291
1873 NA NA 18:00:00 TS 21.70 -58.50 828 786 _____________O -1 21.70 -58.50 HU 80 11 289
1873 NA NA 21:00:00 TS 21.86 -59.07 783 744 _____________P -1 21.86 -59.05 HU 80 11 286
1873 NA NA 1873-08-19 00:00:00 TS 22.00 -59.60 744 _____________O -1 22.00 -59.60 HU 80 10 286